Terminal Aerodrome Forecast
Issued by NWS

Home | Current Version | Previous Version | Text Only | Print | Product List | Glossary On
Versions: 1 2 3 4 5 6 7 8 9 10 11 12 13
000
FTUS41 KBTV 041736
TAFMSS
TAF
KMSS 041736Z 0418/0518 VRB03KT P6SM SCT090 SCT150
     FM050200 00000KT P6SM FEW090 FEW150
     FM051400 25007KT P6SM FEW070=

USA.gov is the U.S. government's official web portal to all federal, state and local government web resources and services.